Time;durP1;ratioP1;P1;durP2;ratioP2;P2;SDS_P1;SDS_P2;PMS_P1;PMS_P2;Temp;Humidity;BMP_temperature;BMP_pressure;BME280_temperature;BME280_humidity;BME280_pressure;Samples;Min_cycle;Max_cycle;Signal;HPM_P1;HPM_P2
2021/10/31 00:02:15;;;;;;;2.03;1.83;;;19.60;66.40;;;;;;5063033;28;20525;-67
2021/10/31 00:04:42;;;;;;;1.70;1.60;;;19.60;66.40;;;;;;5056012;28;20715;-66
2021/10/31 00:07:09;;;;;;;1.77;1.67;;;19.60;66.40;;;;;;5062839;28;20199;-66
2021/10/31 00:09:36;;;;;;;2.00;1.87;;;19.60;66.40;;;;;;5060934;28;20194;-67
2021/10/31 00:12:04;;;;;;;2.80;1.70;;;19.60;66.40;;;;;;5054129;28;20210;-66
2021/10/31 00:14:31;;;;;;;2.17;1.97;;;19.60;66.40;;;;;;5049032;28;20204;-66
2021/10/31 00:16:59;;;;;;;2.13;1.90;;;19.50;66.40;;;;;;5055018;28;20213;-66
2021/10/31 00:19:30;;;;;;;2.10;1.90;;;19.60;66.40;;;;;;5057012;28;20218;-66
2021/10/31 00:22:00;;;;;;;2.00;1.80;;;19.50;66.40;;;;;;5053085;28;20196;-66
2021/10/31 00:24:29;;;;;;;1.70;1.60;;;19.50;66.30;;;;;;5047357;28;20239;-66
2021/10/31 00:26:57;;;;;;;2.80;1.77;;;19.50;66.30;;;;;;5061505;28;20222;-66
2021/10/31 00:29:40;;;;;;;1.57;1.47;;;19.50;66.40;;;;;;5056963;28;20716;-67
2021/10/31 00:32:10;;;;;;;1.90;1.70;;;19.50;66.40;;;;;;5059004;28;20299;-66
2021/10/31 00:34:38;;;;;;;2.20;1.70;;;19.50;66.30;;;;;;5043773;28;20221;-66
2021/10/31 00:37:08;;;;;;;1.67;1.57;;;19.50;66.30;;;;;;5061290;28;20219;-66
2021/10/31 00:39:39;;;;;;;1.60;1.50;;;19.50;66.30;;;;;;5058264;28;20206;-67
2021/10/31 00:42:09;;;;;;;4.23;1.60;;;19.50;66.30;;;;;;5046003;28;20216;-66
2021/10/31 00:44:41;;;;;;;1.90;1.80;;;19.50;66.30;;;;;;5064856;28;20268;-67
2021/10/31 00:47:11;;;;;;;1.60;1.50;;;19.50;66.20;;;;;;5061713;28;20199;-67
2021/10/31 00:49:42;;;;;;;1.43;1.33;;;19.50;66.30;;;;;;5054332;28;20204;-67
2021/10/31 00:52:21;;;;;;;1.87;1.50;;;19.50;66.60;;;;;;5059583;28;20272;-66
2021/10/31 00:55:00;;;;;;;1.87;1.60;;;19.50;66.30;;;;;;5050719;28;20201;-66
2021/10/31 00:57:35;;;;;;;1.73;1.63;;;19.40;66.10;;;;;;5041743;28;20221;-65
2021/10/31 01:00:09;;;;;;;1.40;1.30;;;19.50;66.20;;;;;;5059897;28;20193;-68
2021/10/31 01:02:40;;;;;;;1.40;1.20;;;19.40;66.10;;;;;;5058826;28;20202;-66
2021/10/31 01:05:18;;;;;;;1.63;1.53;;;19.40;66.10;;;;;;5053914;28;20217;-66
2021/10/31 01:08:24;;;;;;;1.77;1.63;;;19.40;66.20;;;;;;5052945;28;20190;-67
2021/10/31 01:11:07;;;;;;;1.70;1.60;;;19.40;66.20;;;;;;5039147;28;20198;-67
2021/10/31 01:14:23;;;;;;;2.37;1.43;;;19.40;66.10;;;;;;5044738;28;20194;-67
2021/10/31 01:17:30;;;;;;;1.50;1.40;;;19.40;66.10;;;;;;5058917;28;20206;-67
2021/10/31 01:20:24;;;;;;;1.70;1.40;;;19.40;66.20;;;;;;5053127;28;20685;-67
2021/10/31 01:23:36;;;;;;;1.53;1.43;;;19.40;66.20;;;;;;5056978;28;20230;-67
2021/10/31 01:26:34;;;;;;;1.40;1.30;;;19.40;66.10;;;;;;4956684;28;20301;-67
2021/10/31 01:29:41;;;;;;;1.77;1.67;;;19.40;66.20;;;;;;5067411;28;20217;-67
2021/10/31 01:32:43;;;;;;;1.73;1.60;;;19.30;66.10;;;;;;5063521;28;20908;-68
2021/10/31 01:35:49;;;;;;;2.13;1.70;;;19.40;66.20;;;;;;5068781;28;20209;-67
2021/10/31 01:38:57;;;;;;;3.47;1.60;;;19.30;66.10;;;;;;5053750;28;20736;-67
2021/10/31 01:41:57;;;;;;;1.70;1.60;;;19.30;66.00;;;;;;5063982;28;20268;-67
2021/10/31 01:44:47;;;;;;;2.00;1.63;;;19.30;66.00;;;;;;5058047;28;20210;-67
2021/10/31 01:47:43;;;;;;;2.07;1.87;;;19.30;66.00;;;;;;5064979;28;20193;-67
2021/10/31 01:50:45;;;;;;;1.50;1.30;;;19.30;66.10;;;;;;5064209;28;20355;-67
2021/10/31 01:53:36;;;;;;;1.57;1.40;;;19.30;66.00;;;;;;5053658;28;20190;-67
2021/10/31 01:56:18;;;;;;;1.90;1.47;;;19.30;66.00;;;;;;5061219;28;20927;-67
2021/10/31 01:59:06;;;;;;;2.27;1.53;;;19.30;66.00;;;;;;5068507;28;20295;-67
2021/10/31 02:01:41;;;;;;;1.80;1.57;;;19.30;66.10;;;;;;5038163;28;20568;-67
2021/10/31 02:04:12;;;;;;;1.60;1.43;;;19.30;66.00;;;;;;5057627;28;20233;-67
2021/10/31 02:06:47;;;;;;;3.03;1.30;;;19.30;66.00;;;;;;5061781;28;20208;-67
2021/10/31 02:09:22;;;;;;;1.70;1.40;;;19.30;66.00;;;;;;5055675;28;20626;-67
2021/10/31 02:11:55;;;;;;;2.17;1.27;;;19.30;66.00;;;;;;5031654;28;20201;-67
2021/10/31 02:14:30;;;;;;;2.07;1.30;;;19.30;66.60;;;;;;5069241;28;20208;-67
2021/10/31 02:17:02;;;;;;;1.43;1.30;;;19.30;65.90;;;;;;5055124;28;20205;-67
2021/10/31 02:19:39;;;;;;;1.53;1.43;;;19.30;65.90;;;;;;5059657;28;20206;-67
2021/10/31 02:22:38;;;;;;;1.50;1.20;;;19.30;66.00;;;;;;5059829;28;20193;-67
2021/10/31 02:25:10;;;;;;;1.53;1.43;;;19.30;66.00;;;;;;5061455;28;20225;-67
2021/10/31 02:27:45;;;;;;;1.57;1.47;;;19.30;65.90;;;;;;5065800;28;20233;-67
2021/10/31 02:30:18;;;;;;;1.73;1.50;;;19.20;65.90;;;;;;5061822;28;20750;-67
2021/10/31 02:32:49;;;;;;;1.43;1.23;;;19.20;65.90;;;;;;5051439;28;20209;-67
2021/10/31 02:35:20;;;;;;;2.07;1.50;;;19.20;65.90;;;;;;5040393;28;20209;-67
2021/10/31 02:37:52;;;;;;;1.70;1.60;;;19.20;65.90;;;;;;5022686;28;20201;-67
2021/10/31 02:40:23;;;;;;;1.73;1.50;;;19.20;65.90;;;;;;5058382;28;20210;-67
2021/10/31 02:43:06;;;;;;;1.60;1.13;;;19.20;66.00;;;;;;5040900;28;20289;-67
2021/10/31 02:45:41;;;;;;;1.53;1.37;;;19.20;65.90;;;;;;5047343;28;20602;-69
2021/10/31 02:48:18;;;;;;;1.50;1.30;;;19.20;65.90;;;;;;5060882;28;20190;-67
2021/10/31 02:50:48;;;;;;;1.47;1.27;;;19.20;65.80;;;;;;5065120;28;20198;-67
2021/10/31 02:53:29;;;;;;;1.90;1.57;;;19.20;65.90;;;;;;5063459;28;20234;-67
2021/10/31 02:56:25;;;;;;;1.60;1.50;;;19.20;65.90;;;;;;5054122;28;20197;-67
2021/10/31 02:59:46;;;;;;;1.67;1.13;;;19.20;65.80;;;;;;5056263;28;20217;-67
2021/10/31 03:02:19;;;;;;;1.97;1.40;;;19.20;65.80;;;;;;5061179;28;20291;-67
2021/10/31 03:04:51;;;;;;;2.93;1.70;;;19.20;65.90;;;;;;5037561;28;20244;-67
2021/10/31 03:07:23;;;;;;;1.50;1.30;;;19.10;65.80;;;;;;5060927;28;20236;-67
2021/10/31 03:09:54;;;;;;;2.07;1.53;;;19.10;65.80;;;;;;5053415;28;20273;-66
2021/10/31 03:12:25;;;;;;;1.60;1.50;;;19.10;65.80;;;;;;5061501;28;20233;-66
2021/10/31 03:14:57;;;;;;;1.70;1.60;;;19.10;65.80;;;;;;5065697;28;20193;-66
2021/10/31 03:17:26;;;;;;;2.80;1.53;;;19.10;65.80;;;;;;5059874;28;20214;-67
2021/10/31 03:19:56;;;;;;;1.73;1.63;;;19.20;65.90;;;;;;5063470;28;20219;-67
2021/10/31 03:22:28;;;;;;;1.93;1.53;;;19.20;65.90;;;;;;5061093;28;20226;-66
2021/10/31 03:24:58;;;;;;;1.30;1.20;;;19.20;65.90;;;;;;5062942;28;20209;-67
2021/10/31 03:27:28;;;;;;;1.80;1.60;;;19.10;65.80;;;;;;5043245;28;20299;-67
2021/10/31 03:30:06;;;;;;;1.47;1.20;;;19.10;65.80;;;;;;5032422;28;20213;-67
2021/10/31 03:32:38;;;;;;;1.13;1.03;;;19.10;65.80;;;;;;5058070;28;20198;-67
2021/10/31 03:35:09;;;;;;;1.40;1.20;;;19.10;65.80;;;;;;5057314;28;20666;-67
2021/10/31 03:37:45;;;;;;;1.67;1.50;;;19.10;65.80;;;;;;5043051;28;20631;-67
2021/10/31 03:40:17;;;;;;;1.73;1.43;;;19.10;65.80;;;;;;5051305;28;20201;-67
2021/10/31 03:42:50;;;;;;;2.33;1.63;;;19.10;65.80;;;;;;5050275;28;20208;-67
2021/10/31 03:45:19;;;;;;;2.07;1.60;;;19.10;65.80;;;;;;5052474;28;20586;-68
2021/10/31 03:47:49;;;;;;;1.77;1.40;;;19.10;65.80;;;;;;5040912;28;20235;-68
2021/10/31 03:50:21;;;;;;;1.47;1.33;;;19.10;65.80;;;;;;5061925;28;20200;-68
2021/10/31 03:52:55;;;;;;;2.00;1.70;;;19.00;65.70;;;;;;5038215;28;20713;-67
2021/10/31 03:55:25;;;;;;;1.60;1.40;;;19.00;65.70;;;;;;5055525;28;20214;-67
2021/10/31 03:57:56;;;;;;;5.23;1.93;;;19.10;65.80;;;;;;5056190;28;20541;-68
2021/10/31 04:00:28;;;;;;;2.83;1.73;;;19.00;65.70;;;;;;5057891;28;20209;-67
2021/10/31 04:03:12;;;;;;;2.40;1.90;;;19.00;65.80;;;;;;5055763;28;20640;-67
2021/10/31 04:05:41;;;;;;;2.57;1.90;;;19.00;65.80;;;;;;5055590;28;20257;-68
2021/10/31 04:08:12;;;;;;;2.53;1.73;;;19.10;65.90;;;;;;5046981;28;20193;-68
2021/10/31 04:10:46;;;;;;;2.83;2.30;;;19.10;65.90;;;;;;5043843;28;20242;-68
2021/10/31 04:13:17;;;;;;;2.10;1.63;;;19.10;65.80;;;;;;5060093;28;20206;-68
2021/10/31 04:15:51;;;;;;;2.00;1.53;;;19.10;65.80;;;;;;5043884;28;20717;-67
2021/10/31 04:18:31;;;;;;;2.33;2.13;;;19.00;65.80;;;;;;5055392;28;20229;-67
2021/10/31 04:20:59;;;;;;;1.70;1.60;;;19.10;65.90;;;;;;5042095;28;20640;-68
2021/10/31 04:23:30;;;;;;;2.83;1.77;;;19.00;65.80;;;;;;5067381;28;20206;-67
2021/10/31 04:26:03;;;;;;;1.70;1.60;;;19.00;65.80;;;;;;5040675;28;20222;-67
2021/10/31 04:28:32;;;;;;;2.13;1.93;;;19.10;65.80;;;;;;5053091;28;20249;-68
2021/10/31 04:31:03;;;;;;;2.20;1.70;;;19.00;65.80;;;;;;5064001;28;20635;-67
2021/10/31 04:33:35;;;;;;;2.47;1.90;;;19.00;65.80;;;;;;5065141;28;20217;-67
2021/10/31 04:36:20;;;;;;;2.23;1.73;;;19.00;65.80;;;;;;5057999;28;20681;-68
2021/10/31 04:39:01;;;;;;;2.80;1.60;;;19.00;65.80;;;;;;5058359;28;20212;-68
2021/10/31 04:41:32;;;;;;;1.90;1.70;;;19.00;65.80;;;;;;5031079;28;20636;-68
2021/10/31 04:44:02;;;;;;;2.30;1.63;;;19.00;65.80;;;;;;5056484;28;20225;-68
2021/10/31 04:46:31;;;;;;;2.40;1.87;;;19.00;65.80;;;;;;5060849;28;20309;-68
2021/10/31 04:49:02;;;;;;;1.80;1.50;;;19.00;65.80;;;;;;5050367;28;20212;-68
2021/10/31 04:51:33;;;;;;;1.70;1.20;;;19.00;65.80;;;;;;5061543;28;20201;-68
2021/10/31 04:54:04;;;;;;;2.00;1.50;;;19.00;66.40;;;;;;5037040;28;20218;-68
2021/10/31 04:56:31;;;;;;;1.87;1.67;;;19.00;65.80;;;;;;5054889;28;20244;-68
2021/10/31 04:59:01;;;;;;;3.03;2.00;;;19.00;65.80;;;;;;5055956;28;20206;-68
2021/10/31 05:01:31;;;;;;;1.93;1.70;;;19.00;65.80;;;;;;5062517;28;20189;-68
2021/10/31 05:04:03;;;;;;;1.80;1.60;;;19.00;65.80;;;;;;5056124;28;20198;-68
2021/10/31 05:06:35;;;;;;;2.67;1.50;;;19.00;65.80;;;;;;5043951;28;20204;-68
2021/10/31 05:09:05;;;;;;;1.60;1.50;;;18.90;65.80;;;;;;5057516;28;20194;-67
2021/10/31 05:11:36;;;;;;;1.57;1.47;;;18.90;65.70;;;;;;5051661;28;20198;-67
2021/10/31 05:14:04;;;;;;;1.63;1.40;;;19.00;65.80;;;;;;5057653;28;20190;-67
2021/10/31 05:16:37;;;;;;;1.70;1.60;;;19.00;65.70;;;;;;5047636;28;20218;-68
2021/10/31 05:19:13;;;;;;;1.83;1.60;;;18.90;65.70;;;;;;5060232;28;20202;-67
2021/10/31 05:21:48;;;;;;;1.70;1.60;;;18.90;65.70;;;;;;5048683;28;20201;-67
2021/10/31 05:24:19;;;;;;;1.33;1.23;;;18.90;65.70;;;;;;5049447;28;20225;-67
2021/10/31 05:26:49;;;;;;;1.90;1.80;;;18.90;65.70;;;;;;5049761;28;20727;-68
2021/10/31 05:29:18;;;;;;;1.40;1.30;;;18.90;65.70;;;;;;5037850;28;20199;-67
2021/10/31 05:31:49;;;;;;;1.60;1.50;;;18.90;65.70;;;;;;5025653;28;20313;-67
2021/10/31 05:34:20;;;;;;;2.77;1.60;;;18.90;65.70;;;;;;5035022;28;20578;-67
2021/10/31 05:36:52;;;;;;;1.47;1.37;;;18.90;65.60;;;;;;5037321;28;20195;-67
2021/10/31 05:39:22;;;;;;;1.83;1.73;;;18.90;65.60;;;;;;5041887;28;20198;-67
2021/10/31 05:41:53;;;;;;;1.30;1.20;;;18.90;65.60;;;;;;5035900;28;20202;-67
2021/10/31 05:44:25;;;;;;;2.90;1.43;;;18.90;65.60;;;;;;5030321;28;20192;-67
2021/10/31 05:46:55;;;;;;;2.27;1.70;;;18.90;65.60;;;;;;5039562;28;20629;-67
2021/10/31 05:49:25;;;;;;;1.80;1.70;;;18.90;65.60;;;;;;5042953;28;20191;-67
2021/10/31 05:51:54;;;;;;;2.33;1.50;;;18.90;65.60;;;;;;5035645;28;20195;-67
2021/10/31 05:54:23;;;;;;;1.80;1.53;;;18.90;65.60;;;;;;5045336;28;20596;-67
2021/10/31 05:56:53;;;;;;;1.80;1.60;;;18.90;65.60;;;;;;5042564;28;20203;-67
2021/10/31 05:59:25;;;;;;;1.50;1.40;;;18.90;65.60;;;;;;5046959;28;20191;-67
2021/10/31 06:01:55;;;;;;;1.60;1.50;;;18.90;65.60;;;;;;5038024;28;20205;-67
2021/10/31 06:04:26;;;;;;;1.40;1.30;;;18.90;65.60;;;;;;5044998;28;20217;-67
2021/10/31 06:06:56;;;;;;;3.97;1.60;;;18.90;65.50;;;;;;5021464;28;20203;-67
2021/10/31 06:09:27;;;;;;;1.70;1.60;;;18.90;65.50;;;;;;5043335;28;20600;-67
2021/10/31 06:12:04;;;;;;;1.60;1.50;;;18.90;65.50;;;;;;5040919;28;20264;-67
2021/10/31 06:14:40;;;;;;;1.50;1.40;;;18.90;65.50;;;;;;5049064;28;20183;-67
2021/10/31 06:17:14;;;;;;;1.57;1.47;;;18.90;65.40;;;;;;5023138;28;20641;-67
2021/10/31 06:19:51;;;;;;;1.93;1.73;;;18.90;65.40;;;;;;5035290;28;20205;-67
2021/10/31 06:22:21;;;;;;;1.50;1.40;;;18.90;65.40;;;;;;5050804;28;20305;-65
2021/10/31 06:24:53;;;;;;;1.47;1.37;;;18.90;65.40;;;;;;5044058;28;20220;-66
2021/10/31 06:27:22;;;;;;;1.83;1.53;;;18.80;65.40;;;;;;5053060;28;20230;-66
2021/10/31 06:29:55;;;;;;;1.33;1.23;;;18.90;65.40;;;;;;5054037;28;20206;-68
2021/10/31 06:32:23;;;;;;;2.70;1.40;;;18.90;65.40;;;;;;5075009;28;20760;-68
2021/10/31 06:34:54;;;;;;;1.63;1.53;;;18.90;65.40;;;;;;5058530;28;20195;-67
2021/10/31 06:37:23;;;;;;;1.20;1.10;;;18.80;65.30;;;;;;5072969;28;20293;-66
2021/10/31 06:39:56;;;;;;;1.30;1.20;;;18.90;65.30;;;;;;5056418;28;20663;-65
2021/10/31 06:42:31;;;;;;;1.43;1.33;;;18.80;65.30;;;;;;5062288;28;20244;-67
2021/10/31 06:45:01;;;;;;;1.77;1.67;;;18.80;65.30;;;;;;5066754;28;20213;-68
2021/10/31 06:47:37;;;;;;;1.27;1.17;;;18.80;65.20;;;;;;5036250;28;20222;-65
2021/10/31 06:50:09;;;;;;;1.53;1.43;;;18.90;65.30;;;;;;5040237;28;20220;-66
2021/10/31 06:52:39;;;;;;;2.27;1.40;;;18.80;65.30;;;;;;5058489;28;20532;-66
2021/10/31 06:55:11;;;;;;;2.00;1.50;;;18.80;65.30;;;;;;5064937;28;20204;-67
2021/10/31 06:57:42;;;;;;;2.07;1.23;;;18.80;65.30;;;;;;5069477;28;20198;-66
2021/10/31 07:00:14;;;;;;;1.40;1.30;;;18.80;65.30;;;;;;5063327;28;20220;-66
2021/10/31 07:02:47;;;;;;;2.47;1.70;;;18.80;65.30;;;;;;5051882;28;20522;-66
2021/10/31 07:05:22;;;;;;;2.00;1.20;;;18.80;65.30;;;;;;5049784;28;20220;-67
2021/10/31 07:07:54;;;;;;;1.77;1.30;;;18.80;65.30;;;;;;5061930;28;20665;-67
2021/10/31 07:10:25;;;;;;;1.33;1.23;;;18.80;66.00;;;;;;5048018;28;20656;-66
2021/10/31 07:12:56;;;;;;;2.23;1.37;;;18.80;65.40;;;;;;5044581;28;20208;-66
2021/10/31 07:15:27;;;;;;;1.77;1.40;;;18.80;65.40;;;;;;5065517;28;20205;-66
2021/10/31 07:17:59;;;;;;;2.07;1.53;;;18.80;65.50;;;;;;5054212;28;20213;-65
2021/10/31 07:20:32;;;;;;;1.40;1.30;;;18.80;65.40;;;;;;5063357;28;20208;-66
2021/10/31 07:23:00;;;;;;;1.20;1.10;;;18.80;65.40;;;;;;5051586;28;20197;-66
2021/10/31 07:25:30;;;;;;;1.50;1.40;;;18.80;65.40;;;;;;5059813;28;20222;-66
2021/10/31 07:27:59;;;;;;;1.60;1.50;;;18.80;65.40;;;;;;5059213;28;20229;-67
2021/10/31 07:30:29;;;;;;;2.57;1.33;;;18.80;65.50;;;;;;5053154;28;20285;-67
2021/10/31 07:33:02;;;;;;;1.43;1.33;;;18.80;65.50;;;;;;5056702;28;20628;-67
2021/10/31 07:35:34;;;;;;;1.27;1.17;;;18.80;65.50;;;;;;5037711;28;20209;-67
2021/10/31 07:38:15;;;;;;;1.90;1.20;;;18.80;65.50;;;;;;5047377;28;20198;-67
2021/10/31 07:40:46;;;;;;;2.80;1.93;;;18.80;65.50;;;;;;5063321;28;20282;-69
2021/10/31 07:43:15;;;;;;;2.33;1.80;;;18.80;65.70;;;;;;5045267;28;20205;-67
2021/10/31 07:45:45;;;;;;;2.20;1.97;;;18.80;65.70;;;;;;5037449;28;20229;-66
2021/10/31 07:48:18;;;;;;;3.17;2.30;;;18.80;66.40;;;;;;5059778;28;20205;-66
2021/10/31 07:50:47;;;;;;;2.97;2.20;;;18.80;65.70;;;;;;5069770;28;20205;-66
2021/10/31 07:53:18;;;;;;;2.77;2.17;;;18.80;65.60;;;;;;5041241;28;20214;-66
2021/10/31 07:56:03;;;;;;;2.70;1.93;;;18.80;65.50;;;;;;5053605;28;20292;-66
2021/10/31 07:58:46;;;;;;;3.27;1.90;;;18.80;65.40;;;;;;5057846;28;20221;-66
2021/10/31 08:01:17;;;;;;;2.87;2.20;;;18.80;65.40;;;;;;5058267;28;20210;-66
2021/10/31 08:03:48;;;;;;;2.77;2.27;;;18.80;65.40;;;;;;5050105;28;20206;-66
2021/10/31 08:06:20;;;;;;;2.20;2.00;;;18.80;65.30;;;;;;5064370;28;20227;-66
2021/10/31 08:08:54;;;;;;;2.53;2.17;;;18.80;65.30;;;;;;5039285;28;20550;-66
2021/10/31 08:11:25;;;;;;;2.90;2.20;;;18.80;65.20;;;;;;5061491;28;20210;-67
2021/10/31 08:13:56;;;;;;;3.97;2.50;;;18.80;65.10;;;;;;5056832;28;20646;-67
2021/10/31 08:16:27;;;;;;;2.10;1.87;;;18.80;65.10;;;;;;5063044;28;20202;-67
2021/10/31 08:18:57;;;;;;;2.83;2.13;;;18.80;65.10;;;;;;5042572;28;21500;-67
2021/10/31 08:21:27;;;;;;;3.97;2.10;;;18.80;65.00;;;;;;5045295;28;20209;-67
2021/10/31 08:23:57;;;;;;;2.83;2.00;;;18.80;65.00;;;;;;5056056;28;20641;-67
2021/10/31 08:26:35;;;;;;;2.57;2.30;;;18.80;65.00;;;;;;5060257;28;20232;-66
2021/10/31 08:29:10;;;;;;;2.70;2.50;;;18.80;64.90;;;;;;5056467;28;20271;-66
2021/10/31 08:31:55;;;;;;;6.43;2.67;;;18.80;64.80;;;;;;5046253;28;20635;-67
2021/10/31 08:34:32;;;;;;;6.27;2.73;;;18.80;64.80;;;;;;5045157;28;20565;-68
2021/10/31 08:37:02;;;;;;;3.97;2.60;;;18.80;64.80;;;;;;5060581;28;20210;-66
2021/10/31 08:39:34;;;;;;;6.90;3.10;;;18.80;64.80;;;;;;5059678;28;20197;-65
2021/10/31 08:42:07;;;;;;;7.30;3.27;;;18.80;64.80;;;;;;5055082;28;20218;-66
2021/10/31 08:44:37;;;;;;;3.63;3.00;;;18.80;64.80;;;;;;5041500;28;20639;-66
2021/10/31 08:47:08;;;;;;;5.70;3.37;;;18.80;64.80;;;;;;5044432;28;20244;-65
2021/10/31 08:49:37;;;;;;;6.87;3.10;;;18.80;64.80;;;;;;5048836;28;20193;-66
2021/10/31 08:52:07;;;;;;;6.60;3.13;;;18.80;64.80;;;;;;5039081;28;20384;-67
2021/10/31 08:54:42;;;;;;;3.03;2.40;;;18.80;65.40;;;;;;5061030;28;20210;-67
2021/10/31 08:57:14;;;;;;;6.07;2.57;;;18.80;64.80;;;;;;5060823;28;20201;-68
2021/10/31 08:59:45;;;;;;;4.67;2.90;;;18.80;64.80;;;;;;5061912;28;20206;-67
2021/10/31 09:02:16;;;;;;;6.33;2.40;;;18.80;64.80;;;;;;5062179;28;20241;-69
2021/10/31 09:04:51;;;;;;;7.03;2.58;;;18.80;64.80;;;;;;5034042;28;20439;-68
2021/10/31 09:07:34;;;;;;;6.70;2.30;;;18.80;65.10;;;;;;5043225;28;20304;-68
2021/10/31 09:10:07;;;;;;;5.63;2.40;;;18.90;65.30;;;;;;5044337;28;20201;-68
2021/10/31 09:12:37;;;;;;;3.03;2.03;;;18.90;65.30;;;;;;5057267;28;20252;-69
2021/10/31 09:15:13;;;;;;;4.67;2.37;;;19.00;65.50;;;;;;5064931;28;20189;-68
2021/10/31 09:17:51;;;;;;;7.10;2.30;;;19.00;65.50;;;;;;5048183;28;20715;-70
2021/10/31 09:20:25;;;;;;;3.33;2.37;;;19.00;65.50;;;;;;5047870;28;20200;-68
2021/10/31 09:23:13;;;;;;;5.73;2.67;;;19.00;65.40;;;;;;5039521;28;20194;-68
2021/10/31 09:25:42;;;;;;;4.57;2.00;;;19.10;65.30;;;;;;5033250;28;20218;-67
2021/10/31 09:28:22;;;;;;;4.33;1.97;;;19.10;65.10;;;;;;5040192;28;20551;-67
2021/10/31 09:30:57;;;;;;;5.73;2.57;;;19.20;65.10;;;;;;5046791;28;20230;-67
2021/10/31 09:33:39;;;;;;;4.47;2.17;;;19.30;65.00;;;;;;5057948;28;20940;-67
2021/10/31 09:36:13;;;;;;;4.37;2.23;;;19.30;64.80;;;;;;5045626;28;20225;-67
2021/10/31 09:38:43;;;;;;;2.73;1.97;;;19.30;64.60;;;;;;5060081;28;20213;-68
2021/10/31 09:41:14;;;;;;;1.90;1.67;;;19.40;64.50;;;;;;5046373;28;20308;-67
2021/10/31 09:43:53;;;;;;;2.97;1.83;;;19.40;64.40;;;;;;5042410;28;20213;-67
2021/10/31 09:46:27;;;;;;;2.13;1.63;;;19.40;64.20;;;;;;5057693;28;20229;-67
2021/10/31 09:49:13;;;;;;;1.83;1.60;;;19.50;64.10;;;;;;5065511;28;20258;-67
2021/10/31 09:51:56;;;;;;;5.60;2.37;;;19.50;64.00;;;;;;5059019;28;20221;-70
2021/10/31 09:54:26;;;;;;;4.07;1.80;;;19.40;64.00;;;;;;5060542;28;20210;-67
2021/10/31 09:56:53;;;;;;;2.37;1.57;;;19.50;64.10;;;;;;5059454;28;20198;-69
2021/10/31 09:59:39;;;;;;;2.20;1.63;;;19.50;64.30;;;;;;5059898;28;20217;-68
2021/10/31 10:02:14;;;;;;;2.90;1.70;;;19.60;64.40;;;;;;5061498;28;20220;-65
2021/10/31 10:04:53;;;;;;;1.40;1.20;;;19.60;64.40;;;;;;5060921;28;20670;-66
2021/10/31 10:07:24;;;;;;;5.07;1.50;;;19.60;64.40;;;;;;5064754;28;20221;-68
2021/10/31 10:09:56;;;;;;;1.90;1.57;;;19.70;64.40;;;;;;5059244;28;20208;-68
2021/10/31 10:12:29;;;;;;;4.00;1.60;;;19.70;64.30;;;;;;5043785;28;20246;-67
2021/10/31 10:15:04;;;;;;;2.43;1.50;;;19.80;64.10;;;;;;5047146;28;20210;-66
2021/10/31 10:18:03;;;;;;;1.77;1.40;;;19.80;63.70;;;;;;5056209;28;20685;-68
2021/10/31 10:20:39;;;;;;;2.53;1.50;;;19.80;63.90;;;;;;5053339;28;20217;-65
2021/10/31 10:23:20;;;;;;;1.47;1.20;;;19.90;63.90;;;;;;5058293;28;20202;-67
2021/10/31 10:25:52;;;;;;;2.70;1.10;;;19.90;63.90;;;;;;5046155;28;20206;-67
2021/10/31 10:28:27;;;;;;;2.37;1.30;;;20.00;63.90;;;;;;5049028;28;20245;-68
2021/10/31 10:31:19;;;;;;;2.00;1.23;;;20.00;63.80;;;;;;5064853;28;20202;-67
2021/10/31 10:33:50;;;;;;;1.40;1.30;;;20.10;63.80;;;;;;5043998;28;20210;-69
2021/10/31 10:36:20;;;;;;;2.23;1.63;;;20.10;63.70;;;;;;5042299;28;20210;-68
2021/10/31 10:39:15;;;;;;;3.67;1.50;;;20.10;63.70;;;;;;5062546;28;20205;-67
2021/10/31 10:41:53;;;;;;;2.80;1.77;;;20.10;63.60;;;;;;5025964;28;20217;-68
2021/10/31 10:44:38;;;;;;;2.00;1.33;;;20.20;63.40;;;;;;5058692;28;20665;-67
2021/10/31 10:47:22;;;;;;;1.50;1.40;;;20.20;63.40;;;;;;5064929;28;20316;-65
2021/10/31 10:49:55;;;;;;;1.57;1.37;;;20.30;63.40;;;;;;5050791;28;20206;-65
2021/10/31 10:52:41;;;;;;;1.67;1.30;;;20.30;63.40;;;;;;5037978;28;20330;-66
2021/10/31 10:55:21;;;;;;;2.73;1.60;;;20.30;63.20;;;;;;5023815;28;20198;-70
2021/10/31 10:57:55;;;;;;;2.00;1.30;;;20.40;62.00;;;;;;5040267;28;20229;-70
2021/10/31 11:00:43;;;;;;;1.37;1.20;;;20.40;61.50;;;;;;5056230;28;20208;-70
2021/10/31 11:03:18;;;;;;;1.33;1.17;;;20.40;61.00;;;;;;5046165;28;20198;-67
2021/10/31 11:06:05;;;;;;;3.37;1.20;;;20.40;60.10;;;;;;5057130;28;20218;-66
2021/10/31 11:08:46;;;;;;;1.97;1.60;;;20.40;60.50;;;;;;5044399;28;20206;-67
2021/10/31 11:11:18;;;;;;;1.30;1.00;;;20.50;60.90;;;;;;5063978;28;20251;-65
2021/10/31 11:13:52;;;;;;;5.07;1.53;;;20.50;61.10;;;;;;5051738;28;20208;-66
2021/10/31 11:16:33;;;;;;;2.70;1.30;;;20.50;61.00;;;;;;5040179;28;20641;-66
2021/10/31 11:19:02;;;;;;;4.27;1.50;;;20.50;60.60;;;;;;5064376;28;20208;-66
2021/10/31 11:21:34;;;;;;;4.60;1.80;;;20.50;60.20;;;;;;5059771;28;20550;-66
2021/10/31 11:24:07;;;;;;;3.23;1.47;;;20.50;60.10;;;;;;5060879;28;20206;-66
2021/10/31 11:26:49;;;;;;;3.53;1.37;;;20.40;60.00;;;;;;5050845;28;20679;-65
2021/10/31 11:29:26;;;;;;;4.37;1.43;;;20.40;60.70;;;;;;5061765;28;20202;-66
2021/10/31 11:32:06;;;;;;;8.77;1.30;;;20.40;60.80;;;;;;5056352;28;20794;-65
2021/10/31 11:34:42;;;;;;;3.50;1.30;;;20.40;61.00;;;;;;5045480;28;20191;-65
2021/10/31 11:37:17;;;;;;;2.53;1.30;;;20.30;61.30;;;;;;5066040;28;20286;-65
2021/10/31 11:39:55;;;;;;;1.70;1.30;;;20.40;61.50;;;;;;5042088;28;20647;-65
2021/10/31 11:42:34;;;;;;;1.67;1.47;;;20.30;61.80;;;;;;5049466;28;20784;-66
2021/10/31 11:45:11;;;;;;;2.00;1.37;;;20.40;62.00;;;;;;5044126;28;20204;-65
2021/10/31 11:47:46;;;;;;;3.40;1.30;;;20.40;62.00;;;;;;5062589;28;20240;-66
2021/10/31 11:50:28;;;;;;;3.10;1.60;;;20.30;62.00;;;;;;5064720;28;20282;-65
2021/10/31 11:53:02;;;;;;;3.20;1.67;;;20.30;62.60;;;;;;5059058;28;20652;-65
2021/10/31 11:55:35;;;;;;;4.50;1.80;;;20.30;62.80;;;;;;5045447;28;20739;-65
2021/10/31 11:58:42;;;;;;;5.17;1.90;;;20.30;62.70;;;;;;5043471;28;20653;-64
2021/10/31 12:01:32;;;;;;;4.67;1.60;;;20.40;62.90;;;;;;5051306;28;20215;-67
2021/10/31 12:04:25;;;;;;;2.37;1.43;;;20.40;63.30;;;;;;5053022;28;20267;-67
2021/10/31 12:06:55;;;;;;;8.03;1.70;;;20.50;63.80;;;;;;5054575;28;20305;-68
2021/10/31 12:09:30;;;;;;;4.77;1.30;;;20.50;63.30;;;;;;5066655;28;20779;-68
2021/10/31 12:12:08;;;;;;;1.80;1.40;;;20.50;63.40;;;;;;5041349;28;20536;-67
2021/10/31 12:14:51;;;;;;;3.83;1.20;;;20.50;63.20;;;;;;5053137;28;20202;-68
2021/10/31 12:17:23;;;;;;;4.87;1.83;;;20.50;63.00;;;;;;5055349;28;20222;-67
2021/10/31 12:19:54;;;;;;;2.27;1.60;;;20.50;62.60;;;;;;5044067;28;20233;-67
2021/10/31 12:22:36;;;;;;;3.50;1.20;;;20.50;62.70;;;;;;5027340;28;20209;-67
2021/10/31 12:25:11;;;;;;;3.53;1.27;;;20.60;62.70;;;;;;5035070;28;20648;-67
2021/10/31 12:27:51;;;;;;;1.83;1.17;;;20.60;63.50;;;;;;5052269;28;20244;-66
2021/10/31 12:30:43;;;;;;;1.07;0.97;;;20.60;62.70;;;;;;5015716;28;20206;-67
2021/10/31 12:33:14;;;;;;;5.20;1.53;;;20.60;62.60;;;;;;5028164;28;20214;-67
2021/10/31 12:35:46;;;;;;;2.47;1.07;;;20.60;62.60;;;;;;5062074;28;20207;-67
2021/10/31 12:38:26;;;;;;;2.90;1.30;;;20.60;62.80;;;;;;5044197;28;20202;-67
2021/10/31 12:41:18;;;;;;;1.77;1.30;;;20.60;62.90;;;;;;5039385;28;21159;-67
2021/10/31 12:44:13;;;;;;;2.20;1.57;;;20.70;62.90;;;;;;5045293;28;20276;-67
2021/10/31 12:47:15;;;;;;;2.30;1.60;;;20.70;63.20;;;;;;5049431;28;20249;-67
2021/10/31 12:49:46;;;;;;;1.40;1.30;;;20.80;63.10;;;;;;5047955;28;20191;-67
2021/10/31 12:52:29;;;;;;;1.60;1.20;;;20.80;62.30;;;;;;5030669;28;20565;-66
2021/10/31 12:55:12;;;;;;;2.27;1.87;;;20.80;63.90;;;;;;5016841;28;20206;-67
2021/10/31 12:58:06;;;;;;;3.50;1.90;;;20.80;64.00;;;;;;5035415;28;20201;-69
2021/10/31 13:00:52;;;;;;;5.53;2.20;;;20.80;63.90;;;;;;5036417;28;20212;-68
2021/10/31 13:03:22;;;;;;;2.63;1.73;;;20.80;63.20;;;;;;5038701;28;20193;-68
2021/10/31 13:05:55;;;;;;;4.73;1.97;;;20.80;63.00;;;;;;5039886;28;20229;-68
2021/10/31 13:08:28;;;;;;;2.30;1.67;;;20.80;62.20;;;;;;5043856;28;20759;-67
2021/10/31 13:10:57;;;;;;;2.27;1.50;;;20.80;63.30;;;;;;5044974;28;20214;-67
2021/10/31 13:13:31;;;;;;;3.30;1.50;;;20.80;62.10;;;;;;5047412;28;20195;-66
2021/10/31 13:16:02;;;;;;;2.73;1.47;;;20.80;62.20;;;;;;5041477;28;20651;-67
2021/10/31 13:18:35;;;;;;;3.77;2.30;;;20.80;61.80;;;;;;5042740;28;20217;-67
2021/10/31 13:21:10;;;;;;;3.73;2.37;;;20.70;62.20;;;;;;5051921;28;20225;-67
2021/10/31 13:23:46;;;;;;;3.13;2.30;;;20.70;62.00;;;;;;5057563;28;20299;-67
2021/10/31 13:26:25;;;;;;;3.80;2.73;;;20.70;61.90;;;;;;5052805;28;20280;-67
2021/10/31 13:28:54;;;;;;;4.23;2.50;;;20.70;61.80;;;;;;5046765;28;20309;-67
2021/10/31 13:31:27;;;;;;;4.47;1.90;;;20.60;61.80;;;;;;5068949;28;20208;-67
2021/10/31 13:34:07;;;;;;;2.37;1.77;;;20.60;61.70;;;;;;5050510;28;20268;-67